LDSB/BWK METAR and TAF weather

Enter ICAO airport designator
Station Type Date Time Source
LDSB METAR 2021/09/27 13:00 UTC NOAA

LDSB 271300Z 15004KT 090V210 9999 BKN053 25/08 Q1018


Station Type Date Time Source
LDSB Decoded METAR 2021/09/27 13:00 UTC NOAA

Brac, Croatia (LDSB) 43-17-09N 016-40-47E
Sep 27, 2021 - 09:00 AM EDT / 2021.09.27 1300 UTC
Wind: from the SSE (150 degrees) at 5 MPH (4 KT) (direction variable):0
Visibility: greater than 7 mile(s):0
Sky conditions: mostly cloudy
Temperature: 77 F (25 C)
Dew Point: 46 F (8 C)
Relative Humidity: 33%
Pressure (altimeter): 30.06 in. Hg (1018 hPa)
ob: LDSB 271300Z 15004KT 090V210 9999 BKN053 25/08 Q1018
cycle: 13

Station Type Date Time Source
LDSB TAF 2021/09/27 14:03 UTC NOAA

TAF
AMD TAF
AMD LDSB 271400Z 2714/2812 CNL

Example: see airport list